createdAt,value
2023-02-06T03:03:48.870Z,3.33
2023-02-06T03:06:39.107Z,2.97
2023-02-06T03:15:59.483Z,2.50
2023-02-06T03:18:34.832Z,2.40
2023-02-06T03:21:30.536Z,3.53
2023-02-06T03:24:03.205Z,3.93
2023-02-06T03:29:46.190Z,4.90
2023-02-06T03:32:17.429Z,3.00
2023-02-06T03:37:56.673Z,3.17
2023-02-06T03:40:31.730Z,3.00
2023-02-06T03:43:24.924Z,2.43
2023-02-06T03:48:55.443Z,3.27
2023-02-06T03:57:38.416Z,3.20
2023-02-06T04:00:38.142Z,2.60
2023-02-06T04:07:06.575Z,3.23
2023-02-06T04:12:49.964Z,2.70
2023-02-06T04:21:11.484Z,3.07
2023-02-06T04:26:44.029Z,2.57
2023-02-06T04:29:21.054Z,3.50
2023-02-06T04:31:51.978Z,3.33
2023-02-06T04:34:21.155Z,3.20
2023-02-06T04:36:53.612Z,3.27
2023-02-06T04:39:24.295Z,2.90
2023-02-06T04:41:57.947Z,2.70
2023-02-06T04:44:26.910Z,3.07
2023-02-06T04:46:55.984Z,3.33
2023-02-06T04:49:41.908Z,3.10
2023-02-06T04:52:13.009Z,2.70
2023-02-06T04:54:44.483Z,2.23
2023-02-06T04:57:15.918Z,2.80
2023-02-06T04:59:46.221Z,2.90
2023-02-06T05:02:15.428Z,2.50
2023-02-06T05:04:45.776Z,2.63
2023-02-06T05:07:16.508Z,3.13
2023-02-06T05:09:45.172Z,2.97
2023-02-06T05:12:23.461Z,3.67
2023-02-06T05:14:58.604Z,2.47
2023-02-06T05:17:27.770Z,2.87
2023-02-06T05:20:02.408Z,2.73
2023-02-06T05:22:39.600Z,3.40
2023-02-06T05:25:09.749Z,3.80
2023-02-06T05:28:01.334Z,2.20
2023-02-06T05:36:31.772Z,3.30
2023-02-06T05:39:07.694Z,4.70
2023-02-06T05:41:45.824Z,2.80
2023-02-06T05:44:31.923Z,2.70
2023-02-06T05:47:05.658Z,2.83
2023-02-06T05:49:37.304Z,3.40
2023-02-06T05:52:12.958Z,2.53
2023-02-06T05:54:56.434Z,2.33
2023-02-06T05:57:26.401Z,3.50
2023-02-06T05:59:55.705Z,3.43
2023-02-06T06:02:27.619Z,3.53
2023-02-06T06:04:56.858Z,3.77
2023-02-06T06:07:27.650Z,3.20
2023-02-06T06:09:56.658Z,2.93
2023-02-06T06:12:26.542Z,3.20
2023-02-06T06:15:13.839Z,2.80
2023-02-06T06:17:49.870Z,3.40
2023-02-06T06:20:21.603Z,2.93
2023-02-06T06:22:50.879Z,4.20
2023-02-06T06:25:23.703Z,3.63
2023-02-06T06:27:59.915Z,3.03
2023-02-06T06:30:31.348Z,3.50
2023-02-06T06:35:51.399Z,4.70
2023-02-06T06:38:58.880Z,3.07
2023-02-06T06:41:28.944Z,3.17
2023-02-06T06:44:10.067Z,2.50
2023-02-06T06:46:49.151Z,2.43
2023-02-06T06:49:43.010Z,4.40
2023-02-06T06:53:03.365Z,4.80
2023-02-06T07:06:29.673Z,3.80
2023-02-06T07:23:13.093Z,3.93
2023-02-06T07:32:26.741Z,4.23
2023-02-06T08:02:18.564Z,3.80
2023-02-06T08:04:47.125Z,3.93
2023-02-06T08:07:22.960Z,4.77
2023-02-06T08:10:12.901Z,4.50
2023-02-06T08:12:46.831Z,3.63
2023-02-06T08:15:18.161Z,3.00
2023-02-06T08:17:49.679Z,3.90
2023-02-06T08:20:22.605Z,3.83
2023-02-06T08:22:53.694Z,4.70
2023-02-06T08:25:22.412Z,3.67
2023-02-06T08:27:54.255Z,4.20
2023-02-06T08:30:23.666Z,4.23
2023-02-06T08:32:54.025Z,3.70
2023-02-06T08:35:22.421Z,3.67
2023-02-06T08:37:51.405Z,3.63
2023-02-06T08:40:23.837Z,3.53
2023-02-06T08:42:53.805Z,2.77
2023-02-06T08:45:22.354Z,2.60
2023-02-06T08:47:51.302Z,2.90
2023-02-06T08:50:21.454Z,3.17
2023-02-06T08:52:50.234Z,2.60
2023-02-06T08:55:20.882Z,2.13
2023-02-06T08:57:54.243Z,2.53
2023-02-06T09:00:23.320Z,2.87
2023-02-06T09:02:54.248Z,2.53
2023-02-06T09:05:27.417Z,2.80
2023-02-06T09:07:56.288Z,2.27
2023-02-06T09:10:29.157Z,2.00
2023-02-06T09:12:58.736Z,2.77
2023-02-06T09:15:32.998Z,2.70
2023-02-06T09:18:01.901Z,2.37
2023-02-06T09:20:32.819Z,1.87
2023-02-06T09:23:01.740Z,2.10
2023-02-06T09:25:30.243Z,1.80
2023-02-06T09:27:59.310Z,2.30
2023-02-06T09:30:28.508Z,2.70
2023-02-06T09:32:57.081Z,1.90
2023-02-06T09:35:26.518Z,2.60
2023-02-06T09:37:56.891Z,1.77
2023-02-06T09:40:28.017Z,2.07
2023-02-06T09:42:57.130Z,1.90
2023-02-06T09:45:27.936Z,2.33
2023-02-06T09:47:59.081Z,1.97
2023-02-06T09:50:33.804Z,1.87
2023-02-06T09:53:15.357Z,1.60
2023-02-06T09:55:47.153Z,2.20
2023-02-06T09:58:22.376Z,2.37
2023-02-06T10:00:55.995Z,1.80
2023-02-06T10:03:38.669Z,1.90
2023-02-06T10:06:13.315Z,1.57
2023-02-06T10:08:46.339Z,1.57
2023-02-06T10:11:22.273Z,2.23
2023-02-06T10:13:53.903Z,1.37
2023-02-06T10:16:31.026Z,1.70
2023-02-06T10:19:04.681Z,1.10
2023-02-06T10:21:35.740Z,1.53
2023-02-06T10:24:15.594Z,1.50
2023-02-06T10:26:47.973Z,1.20
2023-02-06T10:29:24.046Z,1.33
2023-02-06T10:32:17.252Z,1.80
2023-02-06T10:35:08.596Z,1.60
2023-02-06T10:38:04.177Z,1.53
2023-02-06T10:41:02.021Z,1.90
2023-02-06T10:43:37.563Z,1.40
2023-02-06T10:46:36.142Z,1.80
2023-02-06T10:55:24.676Z,1.70
2023-02-06T10:58:21.042Z,1.97
2023-02-06T11:01:23.679Z,2.10
2023-02-06T11:04:04.937Z,1.33
2023-02-06T11:12:16.888Z,2.03
2023-02-06T11:14:45.605Z,1.63
2023-02-06T11:17:24.063Z,1.53
2023-02-06T11:23:45.015Z,1.80
2023-02-06T11:26:36.114Z,2.10
2023-02-06T11:32:19.226Z,1.87
2023-02-06T11:35:06.553Z,1.50
2023-02-06T11:37:36.775Z,2.60
2023-02-06T11:46:32.290Z,1.90
2023-02-06T11:49:30.661Z,2.37
2023-02-06T11:55:01.654Z,1.87
2023-02-06T11:57:31.473Z,2.70
2023-02-06T12:00:28.882Z,2.03
2023-02-06T12:02:57.740Z,1.30
2023-02-06T12:05:30.179Z,1.77
2023-02-06T12:11:06.098Z,2.30
2023-02-06T12:13:37.323Z,2.00
2023-02-06T12:16:07.475Z,2.30
2023-02-06T12:18:40.058Z,1.80
2023-02-06T12:21:11.775Z,2.20
2023-02-06T12:23:44.351Z,2.00
2023-02-06T12:26:39.226Z,1.37
2023-02-06T12:29:34.072Z,1.57
2023-02-06T12:32:07.634Z,2.20
2023-02-06T12:34:53.986Z,2.53
2023-02-06T12:37:26.452Z,2.33
2023-02-06T12:39:56.721Z,2.33
2023-02-06T12:42:32.856Z,2.23
2023-02-06T12:45:10.171Z,1.50
2023-02-06T12:47:41.045Z,1.77
2023-02-06T12:50:29.707Z,2.33
2023-02-06T12:53:03.042Z,2.43
2023-02-06T12:55:56.128Z,2.50
2023-02-06T12:58:28.095Z,1.90
2023-02-06T13:01:25.894Z,1.53
2023-02-06T13:03:59.188Z,1.93
2023-02-06T13:06:37.394Z,2.20
2023-02-06T13:09:06.662Z,2.43
2023-02-06T13:11:40.729Z,2.07
2023-02-06T13:14:18.124Z,3.10
2023-02-06T13:16:51.403Z,1.80
2023-02-06T13:25:47.029Z,1.40
2023-02-06T13:28:34.560Z,2.17
2023-02-06T13:31:07.470Z,2.40
2023-02-06T13:33:55.281Z,2.47
2023-02-06T13:36:28.970Z,2.17
2023-02-06T13:39:14.969Z,1.90
2023-02-06T13:41:45.850Z,1.77
2023-02-06T13:44:17.963Z,2.57
2023-02-06T13:47:08.718Z,2.33
2023-02-06T13:49:52.117Z,1.97
2023-02-06T13:52:29.640Z,1.77
2023-02-06T13:57:58.343Z,3.27
2023-02-06T14:00:32.904Z,2.30
2023-02-06T14:03:08.810Z,1.77
2023-02-06T14:05:43.005Z,1.90
2023-02-06T14:08:18.500Z,1.73
2023-02-06T14:10:57.219Z,2.70
2023-02-06T14:13:32.984Z,1.90
2023-02-06T14:16:11.036Z,2.87
2023-02-06T14:18:48.840Z,1.90
2023-02-06T14:21:24.359Z,2.27
2023-02-06T14:24:02.360Z,2.33
2023-02-06T14:29:26.213Z,1.83
2023-02-06T14:32:06.466Z,1.77
2023-02-06T14:34:42.526Z,1.47
2023-02-06T14:37:32.863Z,2.13
2023-02-06T14:40:05.546Z,1.80
2023-02-06T14:42:36.015Z,2.20
2023-02-06T14:48:05.783Z,1.30
2023-02-06T14:50:51.296Z,1.87
2023-02-06T14:53:31.209Z,1.50
2023-02-06T14:56:13.933Z,1.50
2023-02-06T14:58:46.066Z,2.03
2023-02-06T15:01:18.004Z,1.50
2023-02-06T15:03:55.029Z,1.20
2023-02-06T15:06:36.970Z,1.27
2023-02-06T15:09:39.061Z,1.20
2023-02-06T15:12:53.926Z,1.70
2023-02-06T15:15:40.194Z,1.50
2023-02-06T15:28:20.771Z,1.50
2023-02-06T15:31:37.725Z,1.50
2023-02-06T15:34:29.152Z,1.73
2023-02-06T15:53:48.558Z,1.67
2023-02-06T15:56:23.488Z,1.40
2023-02-06T15:59:18.031Z,1.93
2023-02-06T16:01:47.790Z,2.10
2023-02-06T16:04:20.302Z,2.23
2023-02-06T16:13:04.522Z,2.13
2023-02-06T16:15:44.309Z,2.10
2023-02-06T16:18:43.918Z,2.20
2023-02-06T16:30:46.529Z,2.40
2023-02-06T16:50:37.186Z,1.80
2023-02-06T16:56:39.977Z,2.00
2023-02-06T17:08:24.381Z,1.80
2023-02-06T17:11:10.370Z,1.80
2023-02-06T17:14:10.675Z,1.60
2023-02-06T17:16:58.066Z,2.20
2023-02-06T17:19:32.192Z,1.33
2023-02-06T17:22:12.440Z,2.60
2023-02-06T17:24:55.219Z,1.90
2023-02-06T17:48:23.006Z,2.60
2023-02-06T17:50:53.897Z,2.40
2023-02-06T18:26:34.166Z,2.43
2023-02-06T18:32:15.650Z,3.03
2023-02-06T19:03:29.108Z,4.10
2023-02-06T20:03:07.355Z,3.00
2023-02-06T22:20:10.331Z,3.00
2023-02-06T22:22:57.030Z,3.40
2023-02-06T22:25:56.510Z,3.90
2023-02-06T22:31:46.955Z,3.77
2023-02-06T22:34:18.890Z,3.37
2023-02-06T22:37:28.301Z,4.20
2023-02-06T22:40:02.812Z,4.57
2023-02-06T22:42:53.860Z,4.53
2023-02-06T22:48:52.720Z,5.87
2023-02-06T22:51:25.457Z,4.30
2023-02-06T22:53:58.832Z,4.93
2023-02-06T23:02:51.432Z,3.60
2023-02-06T23:05:46.697Z,5.70
2023-02-06T23:08:33.088Z,4.93
2023-02-06T23:11:23.084Z,3.60
2023-02-06T23:13:54.158Z,3.87
2023-02-06T23:16:23.831Z,4.10
2023-02-06T23:18:56.240Z,4.50
2023-02-06T23:21:28.271Z,4.33
2023-02-06T23:23:59.695Z,3.97
2023-02-06T23:26:30.797Z,4.10
2023-02-06T23:32:30.925Z,3.50
2023-02-06T23:35:06.511Z,5.93
2023-02-06T23:37:38.524Z,3.90
2023-02-06T23:40:17.220Z,4.70
2023-02-06T23:42:49.240Z,3.50
2023-02-06T23:45:19.065Z,5.70
2023-02-06T23:47:50.711Z,4.27
2023-02-06T23:50:34.639Z,4.10
2023-02-06T23:53:11.857Z,4.83
2023-02-06T23:55:43.791Z,4.13
2023-02-06T23:58:13.776Z,3.87
